Time;durP1;ratioP1;P1;durP2;ratioP2;P2;SDS_P1;SDS_P2;PMS_P1;PMS_P2;Temp;Humidity;BMP_temperature;BMP_pressure;BME280_temperature;BME280_humidity;BME280_pressure;Samples;Min_cycle;Max_cycle;Signal;HPM_P1;HPM_P2
2021/06/22 00:00:40;;;;;;;13.72;5.03;;;;;;;;;;346015;155;857504;-61
2021/06/22 00:01:42;;;;;;;18.44;6.18;;;;;;;;;;339180;156;857874;-61
2021/06/22 00:02:44;;;;;;;15.11;5.42;;;;;;;;;;341946;154;866932;-60
2021/06/22 00:03:46;;;;;;;15.81;5.81;;;;;;;;;;341132;157;858066;-60
2021/06/22 00:04:48;;;;;;;13.88;5.36;;;;;;;;;;339902;155;857969;-61
2021/06/22 00:05:49;;;;;;;18.18;5.96;;;;;;;;;;339556;157;866802;-60
2021/06/22 00:06:53;;;;;;;15.88;5.70;;;;;;;;;;342967;156;859466;-61
2021/06/22 00:07:55;;;;;;;13.98;5.31;;;;;;;;;;345079;155;857347;-60
2021/06/22 00:08:57;;;;;;;25.20;5.89;;;;;;;;;;341980;155;858456;-60
2021/06/22 00:09:58;;;;;;;27.04;6.74;;;;;;;;;;341936;156;857492;-61
2021/06/22 00:11:00;;;;;;;26.25;6.45;;;;;;;;;;339081;159;860873;-61
2021/06/22 00:12:02;;;;;;;22.31;6.54;;;;;;;;;;340866;157;865055;-61
2021/06/22 00:13:03;;;;;;;12.85;4.75;;;;;;;;;;342085;154;857460;-61
2021/06/22 00:14:05;;;;;;;13.58;4.69;;;;;;;;;;344177;154;857429;-61
2021/06/22 00:15:07;;;;;;;15.11;5.13;;;;;;;;;;344045;156;857473;-60
2021/06/22 00:16:09;;;;;;;26.49;6.31;;;;;;;;;;340668;155;866626;-60
2021/06/22 00:17:11;;;;;;;27.02;6.12;;;;;;;;;;342114;157;857405;-61
2021/06/22 00:18:12;;;;;;;22.18;6.40;;;;;;;;;;342747;154;859033;-61
2021/06/22 00:19:14;;;;;;;23.84;5.39;;;;;;;;;;345568;156;866408;-61
2021/06/22 00:20:17;;;;;;;20.32;5.93;;;;;;;;;;345315;156;857371;-62
2021/06/22 00:21:19;;;;;;;22.55;6.22;;;;;;;;;;342568;155;857344;-61
2021/06/22 00:22:20;;;;;;;29.11;6.94;;;;;;;;;;341896;154;865176;-61
2021/06/22 00:23:22;;;;;;;24.33;5.89;;;;;;;;;;342567;154;857705;-61
2021/06/22 00:24:24;;;;;;;25.22;7.75;;;;;;;;;;340942;154;857475;-61
2021/06/22 00:25:25;;;;;;;30.29;7.08;;;;;;;;;;343165;157;857187;-61
2021/06/22 00:26:28;;;;;;;23.51;6.83;;;;;;;;;;341682;156;866601;-61
2021/06/22 00:27:29;;;;;;;31.41;7.54;;;;;;;;;;342834;157;864756;-61
2021/06/22 00:28:31;;;;;;;23.00;6.57;;;;;;;;;;342463;154;857696;-61
2021/06/22 00:29:33;;;;;;;21.04;6.86;;;;;;;;;;348093;153;857869;-61
2021/06/22 00:30:36;;;;;;;24.66;7.05;;;;;;;;;;347937;154;857417;-61
2021/06/22 00:31:38;;;;;;;21.04;6.15;;;;;;;;;;347788;152;859741;-61
2021/06/22 00:32:39;;;;;;;28.59;6.36;;;;;;;;;;347065;153;865157;-61
2021/06/22 00:33:41;;;;;;;26.71;6.73;;;;;;;;;;342919;157;857568;-61
2021/06/22 00:34:44;;;;;;;27.21;6.84;;;;;;;;;;347610;153;866062;-61
2021/06/22 00:35:46;;;;;;;27.99;7.17;;;;;;;;;;346894;154;858853;-61
2021/06/22 00:36:49;;;;;;;30.49;7.09;;;;;;;;;;348747;154;859091;-61
2021/06/22 00:37:51;;;;;;;33.31;7.31;;;;;;;;;;347927;153;864927;-61
2021/06/22 00:38:52;;;;;;;29.40;7.36;;;;;;;;;;348833;154;858987;-61
2021/06/22 00:39:54;;;;;;;27.31;6.80;;;;;;;;;;347738;152;857339;-61
2021/06/22 00:40:55;;;;;;;28.30;6.78;;;;;;;;;;345442;153;866126;-61
2021/06/22 00:41:57;;;;;;;35.28;7.74;;;;;;;;;;349024;154;865546;-61
2021/06/22 00:42:59;;;;;;;32.46;7.35;;;;;;;;;;347753;153;865754;-61
2021/06/22 00:44:05;;;;;;;42.49;7.73;;;;;;;;;;349035;154;858782;-61
2021/06/22 00:45:07;;;;;;;33.46;7.21;;;;;;;;;;347237;152;857482;-61
2021/06/22 00:46:11;;;;;;;36.18;7.47;;;;;;;;;;348648;154;858447;-61
2021/06/22 00:47:12;;;;;;;14.45;5.30;;;;;;;;;;348394;154;857399;-61
2021/06/22 00:48:14;;;;;;;15.84;5.20;;;;;;;;;;347520;153;857645;-61
2021/06/22 00:49:16;;;;;;;22.42;6.34;;;;;;;;;;348921;154;865877;-61
2021/06/22 00:50:19;;;;;;;20.61;5.42;;;;;;;;;;348391;153;864988;-61
2021/06/22 00:51:21;;;;;;;23.46;5.63;;;;;;;;;;347903;153;857431;-61
2021/06/22 00:52:23;;;;;;;18.56;5.47;;;;;;;;;;348699;154;866147;-61
2021/06/22 00:53:24;;;;;;;14.59;4.97;;;;;;;;;;348154;153;859428;-61
2021/06/22 00:54:26;;;;;;;14.33;5.34;;;;;;;;;;348619;154;858183;-62
2021/06/22 00:55:32;;;;;;;24.53;5.73;;;;;;;;;;348464;152;865090;-62
2021/06/22 00:56:35;;;;;;;13.34;5.04;;;;;;;;;;347647;153;866356;-62
2021/06/22 00:57:36;;;;;;;20.01;5.47;;;;;;;;;;348496;154;859099;-62
2021/06/22 00:58:38;;;;;;;30.44;6.69;;;;;;;;;;347477;153;857574;-62
2021/06/22 00:59:39;;;;;;;36.27;7.07;;;;;;;;;;348918;154;865930;-62
2021/06/22 01:00:42;;;;;;;39.34;8.07;;;;;;;;;;348411;154;858106;-62
2021/06/22 01:01:43;;;;;;;38.52;8.56;;;;;;;;;;345661;153;859271;-62
2021/06/22 01:02:45;;;;;;;32.39;7.59;;;;;;;;;;344528;154;857546;-60
2021/06/22 01:03:46;;;;;;;44.07;8.23;;;;;;;;;;348695;153;859268;-61
2021/06/22 01:04:48;;;;;;;44.36;7.71;;;;;;;;;;350567;151;865521;-61
2021/06/22 01:05:50;;;;;;;35.19;8.07;;;;;;;;;;354518;151;857352;-61
2021/06/22 01:06:53;;;;;;;35.83;8.70;;;;;;;;;;342477;155;857531;-61
2021/06/22 01:07:55;;;;;;;54.88;9.97;;;;;;;;;;346478;152;865019;-61
2021/06/22 01:08:57;;;;;;;48.15;9.68;;;;;;;;;;351229;149;857364;-61
2021/06/22 01:09:59;;;;;;;45.16;8.23;;;;;;;;;;352840;152;857447;-61
2021/06/22 01:11:00;;;;;;;47.79;8.16;;;;;;;;;;353451;152;859749;-61
2021/06/22 01:12:03;;;;;;;37.82;7.86;;;;;;;;;;346370;155;865892;-61
2021/06/22 01:13:04;;;;;;;21.85;5.82;;;;;;;;;;346960;152;858120;-61
2021/06/22 01:14:06;;;;;;;22.38;6.18;;;;;;;;;;353582;151;858388;-61
2021/06/22 01:15:21;;;;;;;37.60;7.07;;;;;;;;;;351621;151;857557;-61
2021/06/22 01:16:23;;;;;;;24.06;6.73;;;;;;;;;;346949;155;857476;-61
2021/06/22 01:17:27;;;;;;;23.49;6.33;;;;;;;;;;348917;150;857488;-61
2021/06/22 01:18:28;;;;;;;47.48;8.35;;;;;;;;;;350197;149;857858;-61
2021/06/22 01:19:31;;;;;;;42.02;8.88;;;;;;;;;;351761;152;859143;-61
2021/06/22 01:20:36;;;;;;;39.33;8.36;;;;;;;;;;351656;152;865029;-61
2021/06/22 01:21:38;;;;;;;47.19;10.37;;;;;;;;;;349904;153;857411;-61
2021/06/22 01:22:46;;;;;;;36.41;8.41;;;;;;;;;;349090;152;859772;-62
2021/06/22 01:23:48;;;;;;;17.14;6.01;;;;;;;;;;349777;153;866326;-60
2021/06/22 01:24:49;;;;;;;27.76;6.76;;;;;;;;;;348412;154;859067;-61
2021/06/22 01:25:51;;;;;;;37.81;7.47;;;;;;;;;;348309;153;865192;-61
2021/06/22 01:26:55;;;;;;;30.25;7.02;;;;;;;;;;349996;154;865959;-61
2021/06/22 01:27:57;;;;;;;34.49;6.77;;;;;;;;;;349498;154;865699;-63
2021/06/22 01:28:58;;;;;;;24.08;6.51;;;;;;;;;;347626;152;864920;-61
2021/06/22 01:30:00;;;;;;;37.35;7.70;;;;;;;;;;348642;154;857407;-62
2021/06/22 01:31:02;;;;;;;29.44;7.42;;;;;;;;;;349581;153;858272;-61
2021/06/22 01:32:07;;;;;;;43.85;7.91;;;;;;;;;;346061;153;857619;-62
2021/06/22 01:33:07;;;;;;;40.64;7.79;;;;;;;;;;346106;153;866003;-61
2021/06/22 01:34:09;;;;;;;32.13;7.79;;;;;;;;;;348565;153;857528;-62
2021/06/22 01:35:11;;;;;;;36.78;8.86;;;;;;;;;;346303;154;857450;-62
2021/06/22 01:36:13;;;;;;;38.32;8.05;;;;;;;;;;343976;154;857430;-62
2021/06/22 01:37:14;;;;;;;45.79;8.19;;;;;;;;;;349703;153;859384;-62
2021/06/22 01:38:16;;;;;;;48.57;8.54;;;;;;;;;;344421;155;864731;-62
2021/06/22 01:39:18;;;;;;;37.12;8.26;;;;;;;;;;350385;152;858320;-62
2021/06/22 01:40:19;;;;;;;35.79;7.84;;;;;;;;;;351237;152;857883;-62
2021/06/22 01:41:21;;;;;;;43.21;8.99;;;;;;;;;;352168;153;865068;-62
2021/06/22 01:42:23;;;;;;;40.92;8.34;;;;;;;;;;350799;152;865160;-62
2021/06/22 01:43:24;;;;;;;49.19;9.35;;;;;;;;;;352210;152;857817;-62
2021/06/22 01:44:29;;;;;;;36.68;9.14;;;;;;;;;;352086;153;859784;-62
2021/06/22 01:45:30;;;;;;;54.42;9.92;;;;;;;;;;351927;152;865076;-62
2021/06/22 01:46:34;;;;;;;50.59;8.86;;;;;;;;;;352882;152;859167;-62
2021/06/22 01:47:35;;;;;;;52.35;9.57;;;;;;;;;;351662;150;858553;-62
2021/06/22 01:48:37;;;;;;;42.38;9.09;;;;;;;;;;352307;150;865240;-62
2021/06/22 01:49:39;;;;;;;56.54;10.91;;;;;;;;;;351542;151;857519;-62
2021/06/22 01:50:42;;;;;;;49.85;9.49;;;;;;;;;;351283;151;866357;-62
2021/06/22 01:51:44;;;;;;;48.23;9.54;;;;;;;;;;351969;153;857622;-62
2021/06/22 01:52:46;;;;;;;46.09;9.04;;;;;;;;;;351700;150;861252;-62
2021/06/22 01:53:55;;;;;;;49.01;9.78;;;;;;;;;;347250;153;858071;-62
2021/06/22 01:54:58;;;;;;;49.09;9.37;;;;;;;;;;344221;152;857386;-62
2021/06/22 01:56:00;;;;;;;40.99;9.29;;;;;;;;;;352734;152;857376;-62
2021/06/22 01:57:02;;;;;;;48.48;8.69;;;;;;;;;;351884;152;857481;-62
2021/06/22 01:58:04;;;;;;;44.02;8.68;;;;;;;;;;350723;151;859237;-62
2021/06/22 01:59:05;;;;;;;30.87;8.41;;;;;;;;;;352509;152;866268;-62
2021/06/22 02:00:08;;;;;;;34.42;8.97;;;;;;;;;;352383;152;858712;-61
2021/06/22 02:01:10;;;;;;;37.70;8.37;;;;;;;;;;350368;152;860084;-61
2021/06/22 02:02:12;;;;;;;36.91;8.79;;;;;;;;;;350157;151;859506;-61
2021/06/22 02:03:15;;;;;;;29.16;8.31;;;;;;;;;;351433;152;865985;-61
2021/06/22 02:04:17;;;;;;;41.07;8.62;;;;;;;;;;347913;152;858402;-61
2021/06/22 02:05:19;;;;;;;43.05;8.42;;;;;;;;;;350941;153;857514;-61
2021/06/22 02:06:21;;;;;;;33.27;7.75;;;;;;;;;;351059;151;857446;-61
2021/06/22 02:07:22;;;;;;;40.52;9.24;;;;;;;;;;351595;152;857667;-61
2021/06/22 02:08:24;;;;;;;32.83;7.86;;;;;;;;;;350726;153;858675;-60
2021/06/22 02:09:26;;;;;;;38.75;8.19;;;;;;;;;;349500;152;857358;-60
2021/06/22 02:10:29;;;;;;;37.96;7.98;;;;;;;;;;349210;153;857333;-61
2021/06/22 02:11:31;;;;;;;30.32;8.33;;;;;;;;;;351779;152;860963;-60
2021/06/22 02:12:33;;;;;;;41.20;9.00;;;;;;;;;;351515;152;862221;-61
2021/06/22 02:13:35;;;;;;;49.35;9.27;;;;;;;;;;352184;153;859465;-61
2021/06/22 02:14:36;;;;;;;46.59;9.43;;;;;;;;;;351809;150;857370;-61
2021/06/22 02:15:38;;;;;;;52.16;9.51;;;;;;;;;;351193;153;857393;-61
2021/06/22 02:16:40;;;;;;;39.47;8.73;;;;;;;;;;351398;150;864869;-60
2021/06/22 02:17:42;;;;;;;43.81;8.79;;;;;;;;;;350048;151;859365;-60
2021/06/22 02:18:44;;;;;;;30.56;7.59;;;;;;;;;;349792;153;857627;-60
2021/06/22 02:19:45;;;;;;;44.39;8.91;;;;;;;;;;350694;151;859865;-60
2021/06/22 02:20:47;;;;;;;30.73;8.52;;;;;;;;;;348929;154;857491;-60
2021/06/22 02:21:49;;;;;;;46.09;9.36;;;;;;;;;;349083;154;865706;-60
2021/06/22 02:22:50;;;;;;;62.59;10.29;;;;;;;;;;351489;152;857327;-60
2021/06/22 02:23:52;;;;;;;46.77;9.49;;;;;;;;;;352291;153;857316;-61
2021/06/22 02:24:54;;;;;;;42.71;9.33;;;;;;;;;;352165;151;864934;-61
2021/06/22 02:25:55;;;;;;;41.53;9.21;;;;;;;;;;350795;152;866866;-60
2021/06/22 02:26:57;;;;;;;53.21;9.03;;;;;;;;;;351101;153;865089;-60
2021/06/22 02:28:02;;;;;;;55.03;9.31;;;;;;;;;;350618;152;865647;-60
2021/06/22 02:29:04;;;;;;;59.14;9.59;;;;;;;;;;351883;151;857444;-60
2021/06/22 02:30:07;;;;;;;44.67;9.19;;;;;;;;;;351034;152;857418;-63
2021/06/22 02:31:09;;;;;;;57.51;9.28;;;;;;;;;;351097;152;857501;-63
2021/06/22 02:32:10;;;;;;;58.12;10.64;;;;;;;;;;359412;150;865139;-60
2021/06/22 02:33:12;;;;;;;58.90;9.46;;;;;;;;;;359480;147;859259;-61
2021/06/22 02:34:13;;;;;;;52.67;9.94;;;;;;;;;;360819;147;858482;-61
2021/06/22 02:35:15;;;;;;;53.79;9.38;;;;;;;;;;360215;148;858874;-60
2021/06/22 02:36:20;;;;;;;50.23;9.08;;;;;;;;;;360152;147;857326;-61
2021/06/22 02:37:21;;;;;;;65.00;10.08;;;;;;;;;;359393;150;857341;-60
2021/06/22 02:38:23;;;;;;;55.38;9.69;;;;;;;;;;358933;148;857579;-60
2021/06/22 02:39:24;;;;;;;49.26;9.95;;;;;;;;;;360707;148;857449;-60
2021/06/22 02:40:27;;;;;;;53.81;9.35;;;;;;;;;;358405;148;857304;-60
2021/06/22 02:41:29;;;;;;;49.34;9.22;;;;;;;;;;358635;147;857875;-60
2021/06/22 02:42:30;;;;;;;53.09;10.01;;;;;;;;;;359180;149;866330;-60
2021/06/22 02:43:32;;;;;;;58.39;11.21;;;;;;;;;;359046;149;857911;-60
2021/06/22 02:44:34;;;;;;;47.95;9.41;;;;;;;;;;358680;147;865145;-61
2021/06/22 02:45:35;;;;;;;62.70;11.01;;;;;;;;;;359369;147;858230;-61
2021/06/22 02:46:39;;;;;;;51.90;10.12;;;;;;;;;;360573;147;858513;-61
2021/06/22 02:47:41;;;;;;;55.31;10.81;;;;;;;;;;359079;148;857567;-61
2021/06/22 02:48:42;;;;;;;55.27;10.99;;;;;;;;;;359151;147;857553;-61
2021/06/22 02:49:44;;;;;;;58.65;9.69;;;;;;;;;;359068;148;857960;-60
2021/06/22 02:50:47;;;;;;;67.25;11.70;;;;;;;;;;361334;148;864709;-60
2021/06/22 02:51:48;;;;;;;63.29;10.98;;;;;;;;;;358958;149;865637;-60
2021/06/22 02:52:50;;;;;;;67.29;11.91;;;;;;;;;;358767;147;857416;-61
2021/06/22 02:53:52;;;;;;;71.55;10.89;;;;;;;;;;358536;147;864755;-61
2021/06/22 02:54:53;;;;;;;64.51;11.48;;;;;;;;;;358612;148;857437;-61
2021/06/22 02:55:55;;;;;;;75.73;12.24;;;;;;;;;;358217;147;865246;-61
2021/06/22 02:56:57;;;;;;;65.57;11.75;;;;;;;;;;360405;147;859742;-61
2021/06/22 02:57:58;;;;;;;64.24;11.66;;;;;;;;;;357148;148;860266;-61
2021/06/22 02:59:00;;;;;;;63.91;11.69;;;;;;;;;;358562;147;865013;-61
2021/06/22 03:00:03;;;;;;;72.02;11.67;;;;;;;;;;358963;148;858371;-61
2021/06/22 03:01:05;;;;;;;88.73;13.96;;;;;;;;;;358277;148;857574;-61
2021/06/22 03:02:06;;;;;;;76.06;12.79;;;;;;;;;;358657;148;858717;-61
2021/06/22 03:03:08;;;;;;;85.01;12.89;;;;;;;;;;359023;149;865171;-61
2021/06/22 03:04:10;;;;;;;80.61;12.94;;;;;;;;;;359539;147;858376;-61
2021/06/22 03:05:12;;;;;;;72.16;12.34;;;;;;;;;;359093;147;858624;-60
2021/06/22 03:06:15;;;;;;;90.03;13.22;;;;;;;;;;360020;149;857852;-61
2021/06/22 03:07:17;;;;;;;77.29;11.02;;;;;;;;;;358194;147;857334;-61
2021/06/22 03:08:18;;;;;;;85.89;13.32;;;;;;;;;;359799;148;865111;-61
2021/06/22 03:09:20;;;;;;;92.57;13.04;;;;;;;;;;358492;148;860233;-61
2021/06/22 03:10:24;;;;;;;79.81;12.28;;;;;;;;;;358956;148;857458;-61
2021/06/22 03:11:25;;;;;;;83.76;12.22;;;;;;;;;;358704;148;859121;-61
2021/06/22 03:12:27;;;;;;;96.66;12.44;;;;;;;;;;357439;148;857484;-60
2021/06/22 03:13:29;;;;;;;84.16;14.44;;;;;;;;;;358471;148;864922;-61
2021/06/22 03:14:31;;;;;;;85.09;12.35;;;;;;;;;;359921;147;865876;-61
2021/06/22 03:15:32;;;;;;;80.83;13.73;;;;;;;;;;350967;151;857951;-60
2021/06/22 03:16:36;;;;;;;89.76;13.61;;;;;;;;;;351662;150;866860;-61
2021/06/22 03:17:37;;;;;;;109.17;12.74;;;;;;;;;;359230;148;857415;-61
2021/06/22 03:18:39;;;;;;;98.81;12.18;;;;;;;;;;359309;148;858261;-61
2021/06/22 03:19:41;;;;;;;96.49;13.75;;;;;;;;;;358607;148;857480;-61
2021/06/22 03:20:43;;;;;;;95.41;13.83;;;;;;;;;;357723;148;857534;-61
2021/06/22 03:21:45;;;;;;;85.53;13.19;;;;;;;;;;359416;147;857411;-61
2021/06/22 03:22:47;;;;;;;96.49;13.40;;;;;;;;;;358312;150;864819;-61
2021/06/22 03:23:49;;;;;;;116.11;14.10;;;;;;;;;;358441;148;859270;-62
2021/06/22 03:24:50;;;;;;;87.94;13.72;;;;;;;;;;361200;148;857329;-61
2021/06/22 03:25:52;;;;;;;92.46;13.65;;;;;;;;;;360611;148;858327;-62
2021/06/22 03:26:54;;;;;;;93.21;13.49;;;;;;;;;;358479;148;866704;-61
2021/06/22 03:27:56;;;;;;;101.22;14.34;;;;;;;;;;358772;148;864821;-61
2021/06/22 03:28:58;;;;;;;116.22;15.51;;;;;;;;;;358529;148;857311;-60
2021/06/22 03:29:59;;;;;;;94.27;13.29;;;;;;;;;;359860;148;859060;-61
2021/06/22 03:31:01;;;;;;;111.71;13.87;;;;;;;;;;356095;150;865465;-60
2021/06/22 03:32:03;;;;;;;98.02;13.62;;;;;;;;;;355891;150;857533;-60
2021/06/22 03:33:05;;;;;;;84.64;12.53;;;;;;;;;;359005;148;865111;-60
2021/06/22 03:34:07;;;;;;;104.38;15.08;;;;;;;;;;357657;148;865056;-61
2021/06/22 03:35:09;;;;;;;109.31;14.64;;;;;;;;;;358813;148;866278;-61
2021/06/22 03:36:11;;;;;;;122.23;14.51;;;;;;;;;;355890;148;857509;-61
2021/06/22 03:37:12;;;;;;;102.15;14.50;;;;;;;;;;358003;147;857471;-62
2021/06/22 03:38:14;;;;;;;113.54;14.56;;;;;;;;;;357146;148;857606;-61
2021/06/22 03:39:15;;;;;;;113.69;14.63;;;;;;;;;;357984;148;857342;-61
2021/06/22 03:40:21;;;;;;;96.17;14.33;;;;;;;;;;357940;148;857345;-61
2021/06/22 03:41:22;;;;;;;100.02;14.84;;;;;;;;;;352112;150;858179;-61
2021/06/22 03:42:24;;;;;;;115.06;14.83;;;;;;;;;;359142;149;857414;-61
2021/06/22 03:43:26;;;;;;;114.49;15.09;;;;;;;;;;358648;148;861095;-61
2021/06/22 03:44:27;;;;;;;101.49;14.31;;;;;;;;;;357345;148;864997;-61
2021/06/22 03:45:29;;;;;;;104.97;14.53;;;;;;;;;;357930;150;860924;-61
2021/06/22 03:46:31;;;;;;;104.65;16.23;;;;;;;;;;359545;148;857310;-61
2021/06/22 03:47:33;;;;;;;94.34;13.66;;;;;;;;;;357700;148;857586;-60
2021/06/22 03:48:35;;;;;;;103.20;13.87;;;;;;;;;;358243;150;864770;-60
2021/06/22 03:49:36;;;;;;;107.56;13.81;;;;;;;;;;359306;148;857483;-60
2021/06/22 03:50:39;;;;;;;105.24;15.60;;;;;;;;;;358921;148;858466;-60
2021/06/22 03:51:41;;;;;;;104.38;14.05;;;;;;;;;;358895;148;859499;-60
2021/06/22 03:52:43;;;;;;;97.21;13.43;;;;;;;;;;358099;147;858519;-60
2021/06/22 03:53:44;;;;;;;125.75;15.28;;;;;;;;;;358511;148;865089;-60
2021/06/22 03:54:47;;;;;;;97.96;15.00;;;;;;;;;;358144;148;857538;-60
2021/06/22 03:55:48;;;;;;;98.99;14.55;;;;;;;;;;360216;148;866023;-60
2021/06/22 03:56:50;;;;;;;101.50;13.05;;;;;;;;;;360947;148;859005;-60
2021/06/22 03:57:53;;;;;;;101.48;14.00;;;;;;;;;;355756;148;865979;-60
2021/06/22 03:58:55;;;;;;;97.37;13.28;;;;;;;;;;359159;148;857439;-60
2021/06/22 03:59:56;;;;;;;86.91;12.51;;;;;;;;;;359484;147;857465;-61
2021/06/22 04:00:58;;;;;;;79.64;12.67;;;;;;;;;;358785;147;858817;-60
2021/06/22 04:02:00;;;;;;;98.71;13.30;;;;;;;;;;359267;149;865222;-60
2021/06/22 04:03:02;;;;;;;113.51;14.42;;;;;;;;;;358423;148;857477;-60
2021/06/22 04:04:03;;;;;;;97.98;13.22;;;;;;;;;;359420;148;859079;-60
2021/06/22 04:05:05;;;;;;;99.07;12.31;;;;;;;;;;359027;147;865527;-60
2021/06/22 04:06:09;;;;;;;104.66;11.97;;;;;;;;;;356740;148;864916;-60
2021/06/22 04:07:10;;;;;;;102.28;12.39;;;;;;;;;;358915;148;860817;-60
2021/06/22 04:08:12;;;;;;;91.14;12.32;;;;;;;;;;359253;148;866897;-61
2021/06/22 04:09:13;;;;;;;92.74;12.94;;;;;;;;;;358087;148;857984;-61
2021/06/22 04:10:16;;;;;;;80.27;12.75;;;;;;;;;;359848;148;865060;-61
2021/06/22 04:11:18;;;;;;;88.47;11.67;;;;;;;;;;359143;149;857432;-61
2021/06/22 04:12:19;;;;;;;83.37;12.14;;;;;;;;;;359672;147;857381;-61
2021/06/22 04:13:21;;;;;;;82.61;11.94;;;;;;;;;;354221;147;860010;-60
2021/06/22 04:14:23;;;;;;;90.76;12.56;;;;;;;;;;355995;148;866675;-61
2021/06/22 04:15:25;;;;;;;85.54;11.38;;;;;;;;;;358649;148;859304;-60
2021/06/22 04:16:27;;;;;;;75.06;9.75;;;;;;;;;;359007;149;865099;-61
2021/06/22 04:17:28;;;;;;;82.04;11.19;;;;;;;;;;359803;147;860428;-62
2021/06/22 04:18:30;;;;;;;98.17;12.04;;;;;;;;;;358909;147;859226;-61
2021/06/22 04:19:32;;;;;;;77.28;10.76;;;;;;;;;;359112;149;858708;-61
2021/06/22 04:20:35;;;;;;;82.47;11.77;;;;;;;;;;358774;148;864913;-62
2021/06/22 04:21:37;;;;;;;75.54;11.52;;;;;;;;;;359972;148;857342;-62
2021/06/22 04:22:39;;;;;;;71.46;11.44;;;;;;;;;;358991;148;859344;-59
2021/06/22 04:23:40;;;;;;;74.73;9.88;;;;;;;;;;357714;148;865072;-61
2021/06/22 04:24:42;;;;;;;79.84;11.15;;;;;;;;;;360706;147;857567;-61
2021/06/22 04:25:44;;;;;;;77.97;10.65;;;;;;;;;;358130;147;865108;-61
2021/06/22 04:26:46;;;;;;;82.16;10.67;;;;;;;;;;351498;152;865203;-61
2021/06/22 04:27:47;;;;;;;64.71;11.03;;;;;;;;;;361055;148;857491;-61
2021/06/22 04:28:49;;;;;;;61.22;9.11;;;;;;;;;;357592;148;857328;-61
2021/06/22 04:29:51;;;;;;;84.97;11.21;;;;;;;;;;358711;148;865058;-61
2021/06/22 04:30:52;;;;;;;78.15;12.01;;;;;;;;;;359386;148;865023;-61
2021/06/22 04:31:54;;;;;;;82.64;11.17;;;;;;;;;;358194;148;867375;-61
2021/06/22 04:32:56;;;;;;;56.41;9.67;;;;;;;;;;358537;148;865548;-61
2021/06/22 04:33:57;;;;;;;71.67;11.19;;;;;;;;;;359596;147;858206;-61
2021/06/22 04:34:59;;;;;;;75.59;10.64;;;;;;;;;;358017;148;857871;-61
2021/06/22 04:36:00;;;;;;;81.05;11.09;;;;;;;;;;359177;150;865309;-61
2021/06/22 04:37:03;;;;;;;81.79;10.40;;;;;;;;;;359267;149;858393;-61
2021/06/22 04:38:05;;;;;;;84.12;12.29;;;;;;;;;;360548;147;857991;-61
2021/06/22 04:39:06;;;;;;;72.02;10.57;;;;;;;;;;359665;148;857583;-61
2021/06/22 04:40:09;;;;;;;67.14;10.00;;;;;;;;;;358944;148;857470;-61
2021/06/22 04:41:11;;;;;;;68.67;11.35;;;;;;;;;;358850;148;857989;-61
2021/06/22 04:42:13;;;;;;;76.66;10.46;;;;;;;;;;358843;147;857408;-61
2021/06/22 04:43:15;;;;;;;77.77;11.53;;;;;;;;;;351470;151;865771;-61
2021/06/22 04:44:16;;;;;;;76.31;10.29;;;;;;;;;;351910;148;859822;-61
2021/06/22 04:45:18;;;;;;;68.13;10.79;;;;;;;;;;359447;149;857310;-62
2021/06/22 04:46:20;;;;;;;70.59;11.10;;;;;;;;;;358406;148;857319;-60
2021/06/22 04:47:22;;;;;;;79.26;10.31;;;;;;;;;;362276;148;857433;-60
2021/06/22 04:48:23;;;;;;;79.19;10.34;;;;;;;;;;359468;148;857332;-60
2021/06/22 04:49:25;;;;;;;83.73;10.79;;;;;;;;;;358801;148;864955;-60
2021/06/22 04:50:27;;;;;;;72.20;11.31;;;;;;;;;;358342;148;865863;-60
2021/06/22 04:51:29;;;;;;;70.04;10.45;;;;;;;;;;357969;148;857359;-61
2021/06/22 04:52:31;;;;;;;75.54;10.12;;;;;;;;;;361567;147;857412;-60
2021/06/22 04:53:33;;;;;;;80.16;10.97;;;;;;;;;;360230;147;865383;-60
2021/06/22 04:54:35;;;;;;;83.42;10.70;;;;;;;;;;360009;148;859992;-60
2021/06/22 04:55:37;;;;;;;73.85;9.84;;;;;;;;;;357253;148;864952;-60
2021/06/22 04:56:40;;;;;;;71.01;9.85;;;;;;;;;;355943;151;857513;-60
2021/06/22 04:57:42;;;;;;;79.97;11.05;;;;;;;;;;359486;147;860554;-60
2021/06/22 04:58:44;;;;;;;77.07;10.61;;;;;;;;;;359330;149;857498;-60
2021/06/22 04:59:46;;;;;;;72.87;9.69;;;;;;;;;;358539;148;857457;-60
2021/06/22 05:00:48;;;;;;;63.91;8.75;;;;;;;;;;358807;147;857491;-60
2021/06/22 05:01:49;;;;;;;65.12;9.36;;;;;;;;;;359360;149;859189;-60
2021/06/22 05:02:51;;;;;;;60.16;10.35;;;;;;;;;;358897;148;857448;-60
2021/06/22 05:03:53;;;;;;;48.49;7.85;;;;;;;;;;359763;147;865300;-60
2021/06/22 05:04:54;;;;;;;56.39;8.26;;;;;;;;;;359053;148;865269;-60
2021/06/22 05:05:56;;;;;;;51.66;8.96;;;;;;;;;;358378;148;860166;-61
2021/06/22 05:06:58;;;;;;;57.56;8.14;;;;;;;;;;357442;148;857461;-60
2021/06/22 05:08:00;;;;;;;47.17;7.43;;;;;;;;;;358446;150;864943;-61
2021/06/22 05:09:02;;;;;;;52.35;6.59;;;;;;;;;;359069;147;857591;-60
2021/06/22 05:10:04;;;;;;;49.09;7.01;;;;;;;;;;361815;148;865563;-60
2021/06/22 05:11:06;;;;;;;35.63;6.35;;;;;;;;;;358918;147;864949;-60
2021/06/22 05:12:08;;;;;;;38.56;6.36;;;;;;;;;;359713;148;857441;-60
2021/06/22 05:13:09;;;;;;;38.60;5.97;;;;;;;;;;359286;148;866417;-60
2021/06/22 05:14:11;;;;;;;43.93;7.06;;;;;;;;;;360212;148;857447;-61
2021/06/22 05:15:13;;;;;;;35.03;5.44;;;;;;;;;;359843;148;859180;-60
2021/06/22 05:16:17;;;;;;;41.09;6.58;;;;;;;;;;359986;148;857460;-60
2021/06/22 05:17:18;;;;;;;44.08;5.96;;;;;;;;;;359162;148;857521;-60
2021/06/22 05:18:20;;;;;;;41.24;6.93;;;;;;;;;;359337;148;857610;-60
2021/06/22 05:19:22;;;;;;;32.25;5.78;;;;;;;;;;359230;150;867196;-60
2021/06/22 05:20:24;;;;;;;35.05;5.94;;;;;;;;;;359105;148;859320;-61
2021/06/22 05:21:26;;;;;;;45.17;5.80;;;;;;;;;;360663;149;857343;-61
2021/06/22 05:22:27;;;;;;;40.59;6.14;;;;;;;;;;359249;148;857425;-61
2021/06/22 05:23:29;;;;;;;33.94;5.06;;;;;;;;;;358951;148;859238;-61
2021/06/22 05:24:30;;;;;;;44.01;6.54;;;;;;;;;;359337;149;858632;-61
2021/06/22 05:25:32;;;;;;;45.93;6.89;;;;;;;;;;358596;148;857435;-61
2021/06/22 05:26:34;;;;;;;46.32;7.13;;;;;;;;;;357276;148;858384;-61
2021/06/22 05:27:36;;;;;;;54.84;7.96;;;;;;;;;;357571;150;857426;-61
2021/06/22 05:28:37;;;;;;;56.26;7.46;;;;;;;;;;357194;148;857433;-61
2021/06/22 05:29:39;;;;;;;58.83;8.91;;;;;;;;;;356645;147;858001;-62
2021/06/22 05:30:41;;;;;;;52.34;7.24;;;;;;;;;;353711;150;858841;-61
2021/06/22 05:31:43;;;;;;;57.04;7.76;;;;;;;;;;358343;147;857511;-61
2021/06/22 05:32:45;;;;;;;53.96;7.66;;;;;;;;;;358574;150;859407;-61
2021/06/22 05:33:46;;;;;;;54.70;6.61;;;;;;;;;;359284;147;859230;-60
2021/06/22 05:34:48;;;;;;;35.94;6.41;;;;;;;;;;355822;148;860266;-60
2021/06/22 05:35:49;;;;;;;50.04;7.11;;;;;;;;;;358760;150;857335;-61
2021/06/22 05:36:51;;;;;;;62.11;7.09;;;;;;;;;;358789;147;857550;-61
2021/06/22 05:37:53;;;;;;;43.67;6.31;;;;;;;;;;359014;149;857405;-60
2021/06/22 05:38:54;;;;;;;41.99;6.81;;;;;;;;;;358999;150;859099;-61
2021/06/22 05:39:56;;;;;;;52.91;6.36;;;;;;;;;;356951;147;858412;-61
2021/06/22 05:40:58;;;;;;;50.10;6.48;;;;;;;;;;356718;147;859094;-61
2021/06/22 05:41:59;;;;;;;42.41;6.29;;;;;;;;;;358191;148;865721;-61
2021/06/22 05:43:01;;;;;;;27.06;4.76;;;;;;;;;;358428;150;858491;-61
2021/06/22 05:44:03;;;;;;;53.90;6.66;;;;;;;;;;358026;150;865474;-61
2021/06/22 05:45:05;;;;;;;32.48;5.02;;;;;;;;;;358856;147;867393;-61
2021/06/22 05:46:07;;;;;;;34.56;6.25;;;;;;;;;;358746;149;858107;-61
2021/06/22 05:47:09;;;;;;;36.18;6.61;;;;;;;;;;359165;149;857767;-61
2021/06/22 05:48:11;;;;;;;36.99;6.87;;;;;;;;;;356906;147;859211;-61
2021/06/22 05:49:13;;;;;;;35.61;6.45;;;;;;;;;;355886;151;859284;-61
2021/06/22 05:50:15;;;;;;;40.09;6.09;;;;;;;;;;357872;147;857489;-62
2021/06/22 05:51:16;;;;;;;46.37;7.99;;;;;;;;;;352525;153;866099;-61
2021/06/22 05:52:18;;;;;;;49.34;6.25;;;;;;;;;;357967;150;866378;-61
2021/06/22 05:53:20;;;;;;;40.14;7.24;;;;;;;;;;357079;147;859304;-61
2021/06/22 05:54:22;;;;;;;42.34;6.49;;;;;;;;;;356091;150;858780;-61
2021/06/22 05:55:23;;;;;;;33.92;5.93;;;;;;;;;;358337;149;857412;-61
2021/06/22 05:56:25;;;;;;;48.63;6.55;;;;;;;;;;358828;147;858260;-62
2021/06/22 05:57:27;;;;;;;38.14;6.27;;;;;;;;;;358920;150;859466;-61
2021/06/22 05:58:28;;;;;;;39.64;5.56;;;;;;;;;;359479;147;858868;-61